createdAt,value
2018-04-18T00:00:37.214Z,11.70
2018-04-18T00:03:04.814Z,11.70
2018-04-18T00:05:32.470Z,11.70
2018-04-18T00:08:00.071Z,11.70
2018-04-18T00:10:28.441Z,11.60
2018-04-18T00:12:56.102Z,11.60
2018-04-18T00:15:23.699Z,11.60
2018-04-18T00:17:51.294Z,11.60
2018-04-18T00:20:18.922Z,11.60
2018-04-18T00:22:46.526Z,11.60
2018-04-18T00:25:14.160Z,11.60
2018-04-18T00:27:41.753Z,11.60
2018-04-18T00:30:09.415Z,11.60
2018-04-18T00:32:37.015Z,11.60
2018-04-18T00:35:08.523Z,11.50
2018-04-18T00:37:36.120Z,11.50
2018-04-18T00:40:04.519Z,11.40
2018-04-18T00:42:32.152Z,11.40
2018-04-18T00:45:00.519Z,11.40
2018-04-18T00:47:28.170Z,11.40
2018-04-18T00:49:55.802Z,11.40
2018-04-18T00:52:23.399Z,11.40
2018-04-18T00:54:51.032Z,11.40
2018-04-18T00:57:18.669Z,11.30
2018-04-18T00:59:46.298Z,11.30
2018-04-18T01:02:13.919Z,11.30
2018-04-18T01:04:41.613Z,11.30
2018-04-18T01:07:09.967Z,11.30
2018-04-18T01:09:37.579Z,11.20
2018-04-18T01:12:05.954Z,11.20
2018-04-18T01:14:34.370Z,11.30
2018-04-18T01:17:01.963Z,11.20
2018-04-18T01:19:29.614Z,11.30
2018-04-18T01:21:57.211Z,11.20
2018-04-18T01:24:24.840Z,11.20
2018-04-18T01:26:52.447Z,11.20
2018-04-18T01:29:20.838Z,11.20
2018-04-18T01:31:49.234Z,11.10
2018-04-18T01:34:16.862Z,11.10
2018-04-18T01:36:44.511Z,11.10
2018-04-18T01:39:12.142Z,11.10
2018-04-18T01:41:39.771Z,11.10
2018-04-18T01:44:07.427Z,11.10
2018-04-18T01:46:35.018Z,11.00
2018-04-18T01:49:14.635Z,11.00
2018-04-18T01:51:42.995Z,11.00
2018-04-18T01:54:11.395Z,11.00
2018-04-18T01:56:39.032Z,10.90
2018-04-18T01:59:06.634Z,11.00
2018-04-18T02:01:34.227Z,10.90
2018-04-18T02:04:01.888Z,10.90
2018-04-18T02:06:29.498Z,11.00
2018-04-18T02:08:57.155Z,10.90
2018-04-18T02:11:25.531Z,10.80
2018-04-18T02:13:53.170Z,10.80
2018-04-18T02:16:20.771Z,10.80
2018-04-18T02:18:48.394Z,10.80
2018-04-18T02:21:16.027Z,10.80
2018-04-18T02:23:43.623Z,10.70
2018-04-18T02:26:11.261Z,10.80
2018-04-18T02:28:38.875Z,10.70
2018-04-18T02:31:06.531Z,10.70
2018-04-18T02:33:34.909Z,10.60
2018-04-18T02:36:03.370Z,10.60
2018-04-18T02:38:30.984Z,10.60
2018-04-18T02:40:58.575Z,10.60
2018-04-18T02:43:26.212Z,10.60
2018-04-18T02:45:53.807Z,10.60
2018-04-18T02:48:21.489Z,10.60
2018-04-18T02:50:49.107Z,10.50
2018-04-18T02:53:16.707Z,10.50
2018-04-18T02:55:45.115Z,10.50
2018-04-18T02:58:12.719Z,10.40
2018-04-18T03:00:40.366Z,10.40
2018-04-18T03:03:07.991Z,10.30
2018-04-18T03:05:36.387Z,10.30
2018-04-18T03:08:03.992Z,10.30
2018-04-18T03:10:31.638Z,10.30
2018-04-18T03:12:59.243Z,10.30
2018-04-18T03:15:27.618Z,10.40
2018-04-18T03:17:56.021Z,10.40
2018-04-18T03:20:23.641Z,10.30
2018-04-18T03:22:51.274Z,10.40
2018-04-18T03:25:18.867Z,10.40
2018-04-18T03:27:46.519Z,10.40
2018-04-18T03:30:14.122Z,10.40
2018-04-18T03:32:41.740Z,10.40
2018-04-18T03:35:09.387Z,10.40
2018-04-18T03:37:37.749Z,10.40
2018-04-18T03:40:05.364Z,10.40
2018-04-18T03:42:32.995Z,10.40
2018-04-18T03:45:00.632Z,10.40
2018-04-18T03:47:28.286Z,10.40
2018-04-18T03:49:55.931Z,10.40
2018-04-18T03:52:23.531Z,10.40
2018-04-18T03:54:51.934Z,10.30
2018-04-18T03:57:19.546Z,10.20
2018-04-18T03:59:47.183Z,10.30
2018-04-18T04:02:14.782Z,10.30
2018-04-18T04:04:43.147Z,10.20
2018-04-18T04:07:10.803Z,10.20
2018-04-18T04:09:38.599Z,10.20
2018-04-18T04:12:06.031Z,10.10
2018-04-18T04:14:33.682Z,10.20
2018-04-18T04:17:13.194Z,10.20
2018-04-18T04:19:52.522Z,10.20
2018-04-18T04:22:31.958Z,10.20
2018-04-18T04:24:59.650Z,10.20
2018-04-18T04:27:27.246Z,10.10
2018-04-18T04:29:55.609Z,10.20
2018-04-18T04:32:23.249Z,10.10
2018-04-18T04:34:50.867Z,10.20
2018-04-18T04:37:18.466Z,10.20
2018-04-18T04:39:46.098Z,10.20
2018-04-18T04:42:13.694Z,10.20
2018-04-18T04:44:41.355Z,10.10
2018-04-18T04:47:08.954Z,10.10
2018-04-18T04:49:37.318Z,10.20
2018-04-18T04:52:04.989Z,10.10
2018-04-18T04:54:32.586Z,10.20
2018-04-18T04:57:00.187Z,10.20
2018-04-18T04:59:27.861Z,10.20
2018-04-18T05:01:55.462Z,10.20
2018-04-18T05:04:23.063Z,10.20
2018-04-18T05:06:50.730Z,10.10
2018-04-18T05:09:18.386Z,10.00
2018-04-18T05:11:45.983Z,10.00
2018-04-18T05:14:15.263Z,10.10
2018-04-18T05:16:42.904Z,10.10
2018-04-18T05:19:10.499Z,10.10
2018-04-18T05:21:38.134Z,10.10
2018-04-18T05:24:05.938Z,10.10
2018-04-18T05:26:34.489Z,10.10
2018-04-18T05:29:02.087Z,10.10
2018-04-18T05:31:30.516Z,10.10
2018-04-18T05:33:58.113Z,10.10
2018-04-18T05:36:25.855Z,10.10
2018-04-18T05:38:53.506Z,10.10
2018-04-18T05:41:21.097Z,10.10
2018-04-18T05:43:48.704Z,10.20
2018-04-18T05:46:16.587Z,10.20
2018-04-18T05:48:44.206Z,10.20
2018-04-18T05:51:11.807Z,10.30
2018-04-18T05:53:40.221Z,10.30
2018-04-18T05:56:07.831Z,10.30
2018-04-18T05:58:36.279Z,10.40
2018-04-18T06:01:03.874Z,10.40
2018-04-18T06:03:31.474Z,10.40
2018-04-18T06:05:59.108Z,10.40
2018-04-18T06:08:26.738Z,10.40
2018-04-18T06:10:54.369Z,10.50
2018-04-18T06:13:21.975Z,10.50
2018-04-18T06:15:49.634Z,10.50
2018-04-18T06:18:17.234Z,10.50
2018-04-18T06:20:45.638Z,10.60
2018-04-18T06:23:13.291Z,10.60
2018-04-18T06:25:40.882Z,10.60
2018-04-18T06:28:08.506Z,10.70
2018-04-18T06:30:36.941Z,10.80
2018-04-18T06:33:04.559Z,10.70
2018-04-18T06:35:32.150Z,10.80
2018-04-18T06:37:59.807Z,10.80
2018-04-18T06:40:27.422Z,10.90
2018-04-18T06:42:55.783Z,11.00
2018-04-18T06:45:23.413Z,10.90
2018-04-18T06:47:51.008Z,11.00
2018-04-18T06:50:18.639Z,11.00
2018-04-18T06:52:46.239Z,11.10
2018-04-18T06:55:14.639Z,11.20
2018-04-18T06:57:42.277Z,11.20
2018-04-18T07:00:09.929Z,11.30
2018-04-18T07:02:37.562Z,11.30
2018-04-18T07:05:05.190Z,11.40
2018-04-18T07:07:32.818Z,11.40
2018-04-18T07:10:00.414Z,11.40
2018-04-18T07:12:28.043Z,11.40
2018-04-18T07:14:55.639Z,11.50
2018-04-18T07:17:23.270Z,11.60
2018-04-18T07:19:50.863Z,11.60
2018-04-18T07:22:18.503Z,11.60
2018-04-18T07:24:46.860Z,11.70
2018-04-18T07:27:14.484Z,11.70
2018-04-18T07:29:42.133Z,11.80
2018-04-18T07:32:09.755Z,11.80
2018-04-18T07:34:37.419Z,11.80
2018-04-18T07:37:05.012Z,11.90
2018-04-18T07:39:32.602Z,11.90
2018-04-18T07:42:00.231Z,12.00
2018-04-18T07:44:27.867Z,12.10
2018-04-18T07:46:55.499Z,12.10
2018-04-18T07:49:23.099Z,12.20
2018-04-18T07:51:51.499Z,12.30
2018-04-18T07:54:19.094Z,12.20
2018-04-18T07:56:46.719Z,12.30
2018-04-18T07:59:14.362Z,12.30
2018-04-18T08:01:42.719Z,12.40
2018-04-18T08:04:10.322Z,12.30
2018-04-18T08:06:37.953Z,12.40
2018-04-18T08:09:05.618Z,12.40
2018-04-18T08:11:33.249Z,12.50
2018-04-18T08:14:00.895Z,12.50
2018-04-18T08:16:28.523Z,12.50
2018-04-18T08:18:56.891Z,12.50
2018-04-18T08:21:25.295Z,12.60
2018-04-18T08:23:52.882Z,12.50
2018-04-18T08:26:20.510Z,12.50
2018-04-18T08:28:48.875Z,12.70
2018-04-18T08:31:17.239Z,12.70
2018-04-18T08:33:44.870Z,12.60
2018-04-18T08:36:12.483Z,12.70
2018-04-18T08:38:40.889Z,12.70
2018-04-18T08:41:08.529Z,12.70
2018-04-18T08:43:36.943Z,12.80
2018-04-18T08:46:04.552Z,12.70
2018-04-18T08:48:32.151Z,12.80
2018-04-18T08:50:59.781Z,12.80
2018-04-18T08:53:28.163Z,12.80
2018-04-18T08:55:56.560Z,12.90
2018-04-18T08:58:24.168Z,12.80
2018-04-18T09:00:51.813Z,12.90
2018-04-18T09:03:19.418Z,12.90
2018-04-18T09:05:47.031Z,13.00
2018-04-18T09:08:14.667Z,13.00
2018-04-18T09:10:42.298Z,13.00
2018-04-18T09:13:09.890Z,13.00
2018-04-18T09:15:37.523Z,13.00
2018-04-18T09:18:05.111Z,13.10
2018-04-18T09:20:33.534Z,13.10
2018-04-18T09:23:01.124Z,13.10
2018-04-18T09:25:28.763Z,13.20
2018-04-18T09:27:56.359Z,13.30
2018-04-18T09:30:24.759Z,13.40
2018-04-18T09:32:52.351Z,13.30
2018-04-18T09:35:19.946Z,13.40
2018-04-18T09:37:47.595Z,13.40
2018-04-18T09:40:15.191Z,13.40
2018-04-18T09:42:42.814Z,13.50
2018-04-18T09:45:11.172Z,13.50
2018-04-18T09:47:39.035Z,13.50
2018-04-18T09:50:06.699Z,13.50
2018-04-18T09:52:34.335Z,13.60
2018-04-18T09:55:01.958Z,13.60
2018-04-18T09:57:30.351Z,13.70
2018-04-18T09:59:58.245Z,13.60
2018-04-18T10:02:29.513Z,13.70
2018-04-18T10:05:11.998Z,13.70
2018-04-18T10:07:39.664Z,13.70
2018-04-18T10:10:07.323Z,13.70
2018-04-18T10:12:34.915Z,13.70
2018-04-18T10:15:02.878Z,13.60
2018-04-18T10:17:30.513Z,13.60
2018-04-18T10:19:58.158Z,13.60
2018-04-18T10:22:26.183Z,13.60
2018-04-18T10:24:53.811Z,13.60
2018-04-18T10:27:21.599Z,13.60
2018-04-18T10:29:49.440Z,13.70
2018-04-18T10:32:17.721Z,13.70
2018-04-18T10:34:45.351Z,13.70
2018-04-18T10:37:13.315Z,13.80
2018-04-18T10:39:40.943Z,13.80
2018-04-18T10:42:08.538Z,13.90
2018-04-18T10:44:36.939Z,13.90
2018-04-18T10:47:04.741Z,13.90
2018-04-18T10:49:32.486Z,13.90
2018-04-18T10:52:00.097Z,13.80
2018-04-18T10:54:28.663Z,13.80
2018-04-18T10:56:56.397Z,13.80
2018-04-18T10:59:24.039Z,13.80
2018-04-18T11:01:51.728Z,13.80
2018-04-18T11:04:19.486Z,13.90
2018-04-18T11:06:47.131Z,13.90
2018-04-18T11:09:14.726Z,13.90
2018-04-18T11:11:42.354Z,14.00
2018-04-18T11:14:09.947Z,14.00
2018-04-18T11:16:37.598Z,14.00
2018-04-18T11:19:05.189Z,14.10
2018-04-18T11:21:33.561Z,14.10
2018-04-18T11:24:01.221Z,14.00
2018-04-18T11:26:28.863Z,14.10
2018-04-18T11:28:56.735Z,14.00
2018-04-18T11:31:24.915Z,14.00
2018-04-18T11:33:53.531Z,14.10
2018-04-18T11:36:21.171Z,14.00
2018-04-18T11:38:48.795Z,14.10
2018-04-18T11:41:16.885Z,14.10
2018-04-18T11:43:44.567Z,14.20
2018-04-18T11:46:12.164Z,14.20
2018-04-18T11:48:40.533Z,14.20
2018-04-18T11:51:09.016Z,14.30
2018-04-18T11:53:37.013Z,14.30
2018-04-18T11:56:04.807Z,14.30
2018-04-18T11:58:33.566Z,14.40
2018-04-18T12:01:01.365Z,14.40
2018-04-18T12:03:30.077Z,14.50
2018-04-18T12:05:57.721Z,14.50
2018-04-18T12:08:25.372Z,14.50
2018-04-18T12:10:53.623Z,14.50
2018-04-18T12:13:21.487Z,14.50
2018-04-18T12:15:49.094Z,14.40
2018-04-18T12:18:17.018Z,14.40
2018-04-18T12:20:44.659Z,14.40
2018-04-18T12:23:12.324Z,14.40
2018-04-18T12:25:39.919Z,14.40
2018-04-18T12:28:07.550Z,14.40
2018-04-18T12:30:35.143Z,14.50
2018-04-18T12:33:02.992Z,14.50
2018-04-18T12:35:31.282Z,14.50
2018-04-18T12:37:59.137Z,14.50
2018-04-18T12:40:26.848Z,14.40
2018-04-18T12:42:55.203Z,14.40
2018-04-18T12:45:23.076Z,14.40
2018-04-18T12:47:50.914Z,14.40
2018-04-18T12:50:18.589Z,14.30
2018-04-18T12:52:46.197Z,14.30
2018-04-18T12:55:14.023Z,14.40
2018-04-18T12:57:41.607Z,14.30
2018-04-18T13:00:09.253Z,14.30
2018-04-18T13:02:36.940Z,14.30
2018-04-18T13:05:04.551Z,14.30
2018-04-18T13:07:33.191Z,14.30
2018-04-18T13:10:00.948Z,14.30
2018-04-18T13:12:28.597Z,14.30
2018-04-18T13:14:56.430Z,14.40
2018-04-18T13:17:24.855Z,14.40
2018-04-18T13:19:52.717Z,14.40
2018-04-18T13:22:20.688Z,14.40
2018-04-18T13:24:49.374Z,14.30
2018-04-18T13:27:17.007Z,14.30
2018-04-18T13:29:44.699Z,14.40
2018-04-18T13:32:12.359Z,14.40
2018-04-18T13:34:39.993Z,14.50
2018-04-18T13:37:07.789Z,14.50
2018-04-18T13:39:35.759Z,14.50
2018-04-18T13:42:03.693Z,14.50
2018-04-18T13:44:31.698Z,14.50
2018-04-18T13:46:59.570Z,14.50
2018-04-18T13:49:27.205Z,14.50
2018-04-18T13:51:54.863Z,14.50
2018-04-18T13:54:22.493Z,14.50
2018-04-18T13:56:50.120Z,14.40
2018-04-18T13:59:17.726Z,14.50
2018-04-18T14:01:46.151Z,14.50
2018-04-18T14:04:13.748Z,14.40
2018-04-18T14:06:41.341Z,14.50
2018-04-18T14:09:09.767Z,14.50
2018-04-18T14:11:37.359Z,14.50
2018-04-18T14:14:04.987Z,14.60
2018-04-18T14:16:33.626Z,14.70
2018-04-18T14:19:01.415Z,14.70
2018-04-18T14:21:29.039Z,14.70
2018-04-18T14:23:56.627Z,14.60
2018-04-18T14:26:24.362Z,14.60
2018-04-18T14:28:51.955Z,14.60
2018-04-18T14:31:19.548Z,14.60
2018-04-18T14:33:47.944Z,14.60
2018-04-18T14:36:15.652Z,14.50
2018-04-18T14:38:44.054Z,14.50
2018-04-18T14:41:11.651Z,14.50
2018-04-18T14:43:39.275Z,14.50
2018-04-18T14:46:07.052Z,14.50
2018-04-18T14:48:34.692Z,14.60
2018-04-18T14:51:02.616Z,14.60
2018-04-18T14:53:30.271Z,14.60
2018-04-18T14:55:57.884Z,14.60
2018-04-18T14:58:25.592Z,14.60
2018-04-18T15:00:53.411Z,14.60
2018-04-18T15:03:21.023Z,14.60
2018-04-18T15:05:49.452Z,14.60
2018-04-18T15:08:17.218Z,14.50
2018-04-18T15:10:44.910Z,14.60
2018-04-18T15:13:13.409Z,14.50
2018-04-18T15:15:41.807Z,14.50
2018-04-18T15:18:10.163Z,14.60
2018-04-18T15:20:37.787Z,14.50
2018-04-18T15:23:05.377Z,14.50
2018-04-18T15:25:33.007Z,14.60
2018-04-18T15:28:00.658Z,14.60
2018-04-18T15:30:28.259Z,14.60
2018-04-18T15:32:55.854Z,14.70
2018-04-18T15:35:24.269Z,14.80
2018-04-18T15:37:51.919Z,14.80
2018-04-18T15:40:19.523Z,14.80
2018-04-18T15:42:47.123Z,14.90
2018-04-18T15:45:14.757Z,14.90
2018-04-18T15:47:42.349Z,14.90
2018-04-18T15:50:10.249Z,15.00
2018-04-18T15:52:38.011Z,15.00
2018-04-18T15:55:05.644Z,15.00
2018-04-18T15:57:34.003Z,15.10
2018-04-18T16:00:02.401Z,15.10
2018-04-18T16:02:29.999Z,15.10
2018-04-18T16:04:57.650Z,15.10
2018-04-18T16:07:25.239Z,15.00
2018-04-18T16:09:52.867Z,15.00
2018-04-18T16:12:21.273Z,15.00
2018-04-18T16:14:48.886Z,15.00
2018-04-18T16:17:16.476Z,14.90
2018-04-18T16:19:44.863Z,14.80
2018-04-18T16:22:13.275Z,14.70
2018-04-18T16:24:40.911Z,14.70
2018-04-18T16:27:09.488Z,14.60
2018-04-18T16:29:43.944Z,14.60
2018-04-18T16:32:12.310Z,14.60
2018-04-18T16:34:40.042Z,14.60
2018-04-18T16:37:07.714Z,14.70
2018-04-18T16:39:35.348Z,14.70
2018-04-18T16:42:02.980Z,14.80
2018-04-18T16:44:31.338Z,14.70
2018-04-18T16:46:58.969Z,14.60
2018-04-18T16:49:26.575Z,14.60
2018-04-18T16:51:54.218Z,14.60
2018-04-18T16:54:21.962Z,14.60
2018-04-18T16:56:49.559Z,14.60
2018-04-18T16:59:17.991Z,14.50
2018-04-18T17:01:45.637Z,14.50
2018-04-18T17:04:13.238Z,14.50
2018-04-18T17:06:40.891Z,14.50
2018-04-18T17:09:08.499Z,14.50
2018-04-18T17:11:36.091Z,14.50
2018-04-18T17:14:03.735Z,14.50
2018-04-18T17:16:31.327Z,14.50
2018-04-18T17:18:58.920Z,14.50
2018-04-18T17:21:26.670Z,14.40
2018-04-18T17:23:54.306Z,14.40
2018-04-18T17:26:21.927Z,14.40
2018-04-18T17:28:49.615Z,14.40
2018-04-18T17:31:17.329Z,14.40
2018-04-18T17:33:44.919Z,14.40
2018-04-18T17:36:12.573Z,14.30
2018-04-18T17:38:40.183Z,14.30
2018-04-18T17:41:08.587Z,14.30
2018-04-18T17:43:36.180Z,14.30
2018-04-18T17:46:03.775Z,14.30
2018-04-18T17:48:32.179Z,14.30
2018-04-18T17:50:59.770Z,14.30
2018-04-18T17:53:27.355Z,14.30
2018-04-18T17:55:55.751Z,14.30
2018-04-18T17:58:23.333Z,14.30
2018-04-18T18:00:50.958Z,14.30
2018-04-18T18:03:18.578Z,14.30
2018-04-18T18:05:46.983Z,14.20
2018-04-18T18:08:14.612Z,14.20
2018-04-18T18:10:42.210Z,14.20
2018-04-18T18:13:09.840Z,14.30
2018-04-18T18:15:37.474Z,14.20
2018-04-18T18:18:05.104Z,14.20
2018-04-18T18:20:33.458Z,14.10
2018-04-18T18:23:01.083Z,14.10
2018-04-18T18:25:28.683Z,14.10
2018-04-18T18:27:56.319Z,14.10
2018-04-18T18:30:23.985Z,14.10
2018-04-18T18:32:51.578Z,14.00
2018-04-18T18:35:19.220Z,14.10
2018-04-18T18:37:46.842Z,14.00
2018-04-18T18:40:14.463Z,14.00
2018-04-18T18:42:42.086Z,14.00
2018-04-18T18:45:09.752Z,14.00
2018-04-18T18:47:37.531Z,14.00
2018-04-18T18:50:05.119Z,14.00
2018-04-18T18:52:32.715Z,14.00
2018-04-18T18:55:00.361Z,14.00
2018-04-18T18:57:28.765Z,14.00
2018-04-18T18:59:56.413Z,13.90
2018-04-18T19:02:24.046Z,14.00
2018-04-18T19:04:51.637Z,14.00
2018-04-18T19:07:19.267Z,14.00
2018-04-18T19:09:46.891Z,14.00
2018-04-18T19:12:14.539Z,14.00
2018-04-18T19:14:42.136Z,14.00
2018-04-18T19:17:09.720Z,13.90
2018-04-18T19:19:37.381Z,14.00
2018-04-18T19:22:04.975Z,14.00
2018-04-18T19:24:32.618Z,13.90
2018-04-18T19:27:00.256Z,13.90
2018-04-18T19:29:28.651Z,14.00
2018-04-18T19:31:57.101Z,14.00
2018-04-18T19:34:24.704Z,13.90
2018-04-18T19:36:52.323Z,13.90
2018-04-18T19:39:20.059Z,14.00
2018-04-18T19:41:47.727Z,13.90
2018-04-18T19:44:15.319Z,13.90
2018-04-18T19:46:42.910Z,13.90
2018-04-18T19:49:10.570Z,13.90
2018-04-18T19:51:38.968Z,13.90
2018-04-18T19:54:06.564Z,13.90
2018-04-18T19:56:34.159Z,13.90
2018-04-18T19:59:02.551Z,13.90
2018-04-18T20:01:30.143Z,13.80
2018-04-18T20:03:57.793Z,13.90
2018-04-18T20:06:26.080Z,13.80
2018-04-18T20:08:53.725Z,13.80
2018-04-18T20:11:21.417Z,13.80
2018-04-18T20:13:49.096Z,13.80
2018-04-18T20:16:16.752Z,13.80
2018-04-18T20:18:44.370Z,13.80
2018-04-18T20:21:12.004Z,13.80
2018-04-18T20:23:39.631Z,13.70
2018-04-18T20:26:07.291Z,13.80
2018-04-18T20:28:34.891Z,13.80
2018-04-18T20:31:02.551Z,13.70
2018-04-18T20:33:30.255Z,13.70
2018-04-18T20:35:57.919Z,13.70
2018-04-18T20:38:25.511Z,13.60
2018-04-18T20:40:53.911Z,13.50
2018-04-18T20:43:21.503Z,13.50
2018-04-18T20:45:49.135Z,13.50
2018-04-18T20:48:16.763Z,13.50
2018-04-18T20:50:44.367Z,13.50
2018-04-18T20:53:11.994Z,13.50
2018-04-18T20:55:40.356Z,13.40
2018-04-18T20:58:07.988Z,13.40
2018-04-18T21:00:35.592Z,13.40
2018-04-18T21:03:03.224Z,13.30
2018-04-18T21:05:30.844Z,13.30
2018-04-18T21:07:59.254Z,13.30
2018-04-18T21:10:26.847Z,13.20
2018-04-18T21:12:54.443Z,13.20
2018-04-18T21:15:22.851Z,13.20
2018-04-18T21:17:50.442Z,13.20
2018-04-18T21:20:18.083Z,13.20
2018-04-18T21:22:45.702Z,13.20
2018-04-18T21:25:14.064Z,13.10
2018-04-18T21:27:42.519Z,13.10
2018-04-18T21:30:10.130Z,13.00
2018-04-18T21:32:37.751Z,13.10
2018-04-18T21:35:05.356Z,13.00
2018-04-18T21:37:32.998Z,13.10
2018-04-18T21:40:01.363Z,13.00
2018-04-18T21:42:28.999Z,13.00
2018-04-18T21:44:56.603Z,13.00
2018-04-18T21:47:25.020Z,13.00
2018-04-18T21:49:52.619Z,13.00
2018-04-18T21:52:20.256Z,13.00
2018-04-18T21:54:47.890Z,13.00
2018-04-18T21:57:15.482Z,13.00
2018-04-18T21:59:43.131Z,13.00
2018-04-18T22:02:10.767Z,13.00
2018-04-18T22:04:38.370Z,13.00
2018-04-18T22:07:05.998Z,13.00
2018-04-18T22:09:33.621Z,13.00
2018-04-18T22:12:01.275Z,13.00
2018-04-18T22:14:29.646Z,13.00
2018-04-18T22:16:57.296Z,12.90
2018-04-18T22:19:24.921Z,13.00
2018-04-18T22:21:52.571Z,12.90
2018-04-18T22:24:20.211Z,12.90
2018-04-18T22:26:48.574Z,12.90
2018-04-18T22:29:16.166Z,12.90
2018-04-18T22:31:43.814Z,12.90
2018-04-18T22:34:12.180Z,12.80
2018-04-18T22:36:40.538Z,12.80
2018-04-18T22:39:08.162Z,12.80
2018-04-18T22:41:35.750Z,12.80
2018-04-18T22:44:03.398Z,12.80
2018-04-18T22:46:31.036Z,12.80
2018-04-18T22:48:58.666Z,12.80
2018-04-18T22:51:27.033Z,12.80
2018-04-18T22:53:54.663Z,12.70
2018-04-18T22:56:22.291Z,12.70
2018-04-18T22:58:50.681Z,12.70
2018-04-18T23:01:18.279Z,12.70
2018-04-18T23:03:45.922Z,12.70
2018-04-18T23:06:13.515Z,12.70
2018-04-18T23:08:41.875Z,12.60
2018-04-18T23:11:09.514Z,12.60
2018-04-18T23:13:37.109Z,12.60
2018-04-18T23:16:05.518Z,12.60
2018-04-18T23:18:33.148Z,12.50
2018-04-18T23:21:01.554Z,12.60
2018-04-18T23:23:29.147Z,12.60
2018-04-18T23:25:56.740Z,12.60
2018-04-18T23:28:25.127Z,12.50
2018-04-18T23:30:53.506Z,12.50
2018-04-18T23:33:21.902Z,12.60
2018-04-18T23:35:49.506Z,12.50
2018-04-18T23:38:17.137Z,12.50
2018-04-18T23:40:44.722Z,12.60
2018-04-18T23:43:12.326Z,12.50
2018-04-18T23:45:40.726Z,12.50
2018-04-18T23:48:08.356Z,12.50
2018-04-18T23:50:35.954Z,12.50
2018-04-18T23:53:03.552Z,12.50
2018-04-18T23:55:31.182Z,12.50
2018-04-18T23:57:58.778Z,12.40
